Ashfield, Pennsylvania
Current Conditions -  °F | °C
As of 1:51 PM on Monday 20 Oct 2014 (Local Time) from KABE Reporting Station
Clear Clear  
Wind Chill: 56°   Ceiling: Unl
Heat Index: 56°   Visibility: 10mi
Dew Point: 37°   Wind: 9mph
Humidity: 49%   Direction: 190°S
Pressure: 30.02"   Gusts: NA
Location:  40.78°N, 75.71°W
Report Text: KABE 201751Z 19008KT 10SM CLR 13/03 A3002 RMK AO2 SLP166 T01330028 10139 20017 58028
Loading
Personal Weather Stations






























Interactive Weather Map New forecast layout! Learn more

10-Day Weather Forecast

Advertisements
Track Severe Weather on mobile